sensor_id;sensor_type;location;lat;lon;timestamp;pressure;altitude;pressure_sealevel;temperature;humidity
51849;BME280;38952;51.090;-1.832;2023-06-10T00:02:10;99978.69;;;17.16;69.12
51849;BME280;38952;51.090;-1.832;2023-06-10T00:04:36;99969.06;;;17.05;69.75
51849;BME280;38952;51.090;-1.832;2023-06-10T00:07:05;99962.53;;;16.92;70.35
51849;BME280;38952;51.090;-1.832;2023-06-10T00:09:37;99974.41;;;16.92;70.40
51849;BME280;38952;51.090;-1.832;2023-06-10T00:12:09;99967.88;;;16.88;70.46
51849;BME280;38952;51.090;-1.832;2023-06-10T00:14:39;99954.81;;;16.80;71.32
51849;BME280;38952;51.090;-1.832;2023-06-10T00:17:15;99960.34;;;16.80;72.13
51849;BME280;38952;51.090;-1.832;2023-06-10T00:19:43;99971.59;;;16.84;71.56
51849;BME280;38952;51.090;-1.832;2023-06-10T00:22:12;99979.19;;;16.78;71.88
51849;BME280;38952;51.090;-1.832;2023-06-10T00:24:37;99970.03;;;16.69;72.82
51849;BME280;38952;51.090;-1.832;2023-06-10T00:27:05;99963.19;;;16.57;72.66
51849;BME280;38952;51.090;-1.832;2023-06-10T00:29:32;99959.75;;;16.52;73.31
51849;BME280;38952;51.090;-1.832;2023-06-10T00:31:59;99963.94;;;16.49;73.56
51849;BME280;38952;51.090;-1.832;2023-06-10T00:34:27;99961.34;;;16.44;73.46
51849;BME280;38952;51.090;-1.832;2023-06-10T00:36:53;99954.94;;;16.35;73.70
51849;BME280;38952;51.090;-1.832;2023-06-10T00:39:18;99959.81;;;16.38;73.66
51849;BME280;38952;51.090;-1.832;2023-06-10T00:41:44;99940.63;;;16.24;73.84
51849;BME280;38952;51.090;-1.832;2023-06-10T00:44:10;99956.53;;;16.27;74.49
51849;BME280;38952;51.090;-1.832;2023-06-10T00:46:37;99948.22;;;16.18;74.37
51849;BME280;38952;51.090;-1.832;2023-06-10T00:49:05;99951.91;;;16.14;74.46
51849;BME280;38952;51.090;-1.832;2023-06-10T00:51:33;99949.97;;;16.14;75.29
51849;BME280;38952;51.090;-1.832;2023-06-10T00:53:59;99949.28;;;16.09;75.85
51849;BME280;38952;51.090;-1.832;2023-06-10T00:56:25;99955.31;;;16.11;76.08
51849;BME280;38952;51.090;-1.832;2023-06-10T00:58:59;99954.31;;;16.07;76.12
51849;BME280;38952;51.090;-1.832;2023-06-10T01:01:31;99961.25;;;16.04;76.27
51849;BME280;38952;51.090;-1.832;2023-06-10T01:04:06;99947.22;;;15.92;76.13
51849;BME280;38952;51.090;-1.832;2023-06-10T01:09:36;99961.13;;;15.86;75.91
51849;BME280;38952;51.090;-1.832;2023-06-10T01:14:59;99958.50;;;15.81;76.71
51849;BME280;38952;51.090;-1.832;2023-06-10T01:17:52;99958.50;;;15.81;76.67
51849;BME280;38952;51.090;-1.832;2023-06-10T01:20:19;99936.88;;;15.61;77.02
51849;BME280;38952;51.090;-1.832;2023-06-10T01:22:44;99947.91;;;15.61;77.37
51849;BME280;38952;51.090;-1.832;2023-06-10T01:25:11;99953.63;;;15.64;77.58
51849;BME280;38952;51.090;-1.832;2023-06-10T01:27:38;99957.72;;;15.67;78.30
51849;BME280;38952;51.090;-1.832;2023-06-10T01:30:14;99955.06;;;15.62;78.19
51849;BME280;38952;51.090;-1.832;2023-06-10T01:32:45;99961.91;;;15.64;78.03
51849;BME280;38952;51.090;-1.832;2023-06-10T01:35:14;99945.69;;;15.49;78.35
51849;BME280;38952;51.090;-1.832;2023-06-10T01:37:45;99942.06;;;15.40;78.41
51849;BME280;38952;51.090;-1.832;2023-06-10T01:40:11;99959.78;;;15.47;78.29
51849;BME280;38952;51.090;-1.832;2023-06-10T01:42:40;99940.88;;;15.32;78.36
51849;BME280;38952;51.090;-1.832;2023-06-10T01:45:06;99956.16;;;15.38;78.56
51849;BME280;38952;51.090;-1.832;2023-06-10T01:47:34;99959.63;;;15.30;79.20
51849;BME280;38952;51.090;-1.832;2023-06-10T01:49:59;99959.13;;;15.28;78.98
51849;BME280;38952;51.090;-1.832;2023-06-10T01:52:25;99946.09;;;15.19;79.25
51849;BME280;38952;51.090;-1.832;2023-06-10T01:54:50;99955.47;;;15.18;79.10
51849;BME280;38952;51.090;-1.832;2023-06-10T01:57:15;99956.91;;;15.16;79.37
51849;BME280;38952;51.090;-1.832;2023-06-10T01:59:43;99955.47;;;15.18;79.63
51849;BME280;38952;51.090;-1.832;2023-06-10T02:02:09;99955.38;;;15.10;80.00
51849;BME280;38952;51.090;-1.832;2023-06-10T02:04:37;99957.31;;;15.09;79.83
51849;BME280;38952;51.090;-1.832;2023-06-10T02:07:03;99957.94;;;15.06;80.01
51849;BME280;38952;51.090;-1.832;2023-06-10T02:09:32;99955.31;;;15.01;79.49
51849;BME280;38952;51.090;-1.832;2023-06-10T02:12:01;99949.88;;;14.96;79.62
51849;BME280;38952;51.090;-1.832;2023-06-10T02:14:26;99963.03;;;14.99;79.82
51849;BME280;38952;51.090;-1.832;2023-06-10T02:16:54;99957.66;;;14.94;79.87
51849;BME280;38952;51.090;-1.832;2023-06-10T02:19:22;99958.66;;;14.98;79.83
51849;BME280;38952;51.090;-1.832;2023-06-10T02:21:47;99962.53;;;14.97;80.10
51849;BME280;38952;51.090;-1.832;2023-06-10T02:24:20;99941.13;;;14.80;80.91
51849;BME280;38952;51.090;-1.832;2023-06-10T02:26:46;99946.31;;;14.81;81.00
51849;BME280;38952;51.090;-1.832;2023-06-10T02:29:13;99945.41;;;14.72;81.19
51849;BME280;38952;51.090;-1.832;2023-06-10T02:31:38;99957.44;;;14.76;81.58
51849;BME280;38952;51.090;-1.832;2023-06-10T02:34:06;99961.69;;;14.69;82.07
51849;BME280;38952;51.090;-1.832;2023-06-10T02:36:32;99963.16;;;14.66;82.20
51849;BME280;38952;51.090;-1.832;2023-06-10T02:38:57;99967.00;;;14.65;82.47
51849;BME280;38952;51.090;-1.832;2023-06-10T02:41:22;99947.19;;;14.49;82.45
51849;BME280;38952;51.090;-1.832;2023-06-10T02:43:50;99955.75;;;14.47;82.97
51849;BME280;38952;51.090;-1.832;2023-06-10T02:46:15;99944.34;;;14.40;82.95
51849;BME280;38952;51.090;-1.832;2023-06-10T02:48:45;99944.41;;;14.35;82.95
51849;BME280;38952;51.090;-1.832;2023-06-10T02:51:18;99959.19;;;14.39;83.07
51849;BME280;38952;51.090;-1.832;2023-06-10T02:53:52;99959.72;;;14.41;83.56
51849;BME280;38952;51.090;-1.832;2023-06-10T02:56:19;99963.06;;;14.38;83.37
51849;BME280;38952;51.090;-1.832;2023-06-10T02:58:45;99953.28;;;14.32;83.41
51849;BME280;38952;51.090;-1.832;2023-06-10T03:01:11;99985.91;;;14.39;83.25
51849;BME280;38952;51.090;-1.832;2023-06-10T03:03:40;99968.34;;;14.21;83.80
51849;BME280;38952;51.090;-1.832;2023-06-10T03:06:09;99951.78;;;14.07;83.81
51849;BME280;38952;51.090;-1.832;2023-06-10T03:08:37;99982.00;;;14.26;83.86
51849;BME280;38952;51.090;-1.832;2023-06-10T03:11:03;99967.06;;;14.13;83.85
51849;BME280;38952;51.090;-1.832;2023-06-10T03:13:28;99966.56;;;14.11;84.02
51849;BME280;38952;51.090;-1.832;2023-06-10T03:15:54;99970.22;;;14.06;84.16
51849;BME280;38952;51.090;-1.832;2023-06-10T03:18:19;99968.09;;;14.03;84.11
51849;BME280;38952;51.090;-1.832;2023-06-10T03:20:45;99971.94;;;14.02;83.78
51849;BME280;38952;51.090;-1.832;2023-06-10T03:23:13;99959.47;;;13.91;84.08
51849;BME280;38952;51.090;-1.832;2023-06-10T03:25:39;99957.03;;;13.89;84.16
51849;BME280;38952;51.090;-1.832;2023-06-10T03:28:04;99969.44;;;13.87;84.61
51849;BME280;38952;51.090;-1.832;2023-06-10T03:30:29;99970.63;;;13.81;84.41
51849;BME280;38952;51.090;-1.832;2023-06-10T03:32:55;99969.88;;;13.75;84.59
51849;BME280;38952;51.090;-1.832;2023-06-10T03:35:20;99974.03;;;13.72;84.76
51849;BME280;38952;51.090;-1.832;2023-06-10T03:37:48;99966.56;;;13.59;84.94
51849;BME280;38952;51.090;-1.832;2023-06-10T03:40:14;99977.53;;;13.59;85.37
51849;BME280;38952;51.090;-1.832;2023-06-10T03:42:45;99965.97;;;13.43;84.97
51849;BME280;38952;51.090;-1.832;2023-06-10T03:45:11;99949.97;;;13.26;85.05
51849;BME280;38952;51.090;-1.832;2023-06-10T03:47:37;99978.94;;;13.37;85.48
51849;BME280;38952;51.090;-1.832;2023-06-10T03:50:04;99962.56;;;13.27;85.45
51849;BME280;38952;51.090;-1.832;2023-06-10T03:52:31;99966.00;;;13.19;85.51
51849;BME280;38952;51.090;-1.832;2023-06-10T03:54:56;99964.81;;;13.25;85.69
51849;BME280;38952;51.090;-1.832;2023-06-10T03:57:22;99961.56;;;13.23;85.96
51849;BME280;38952;51.090;-1.832;2023-06-10T03:59:47;99953.38;;;13.18;86.16
51849;BME280;38952;51.090;-1.832;2023-06-10T04:02:13;99973.56;;;13.27;86.12
51849;BME280;38952;51.090;-1.832;2023-06-10T04:04:38;99961.56;;;13.23;85.78
51849;BME280;38952;51.090;-1.832;2023-06-10T04:07:04;99973.56;;;13.27;85.93
51849;BME280;38952;51.090;-1.832;2023-06-10T04:09:30;99968.59;;;13.29;86.14
51849;BME280;38952;51.090;-1.832;2023-06-10T04:11:56;99950.34;;;13.19;86.39
51849;BME280;38952;51.090;-1.832;2023-06-10T04:14:21;99968.91;;;13.27;85.75
51849;BME280;38952;51.090;-1.832;2023-06-10T04:16:49;99959.31;;;13.25;86.05
51849;BME280;38952;51.090;-1.832;2023-06-10T04:19:15;99964.69;;;13.35;85.75
51849;BME280;38952;51.090;-1.832;2023-06-10T04:21:41;99968.19;;;13.41;85.82
51849;BME280;38952;51.090;-1.832;2023-06-10T04:24:07;99972.28;;;13.43;86.12
51849;BME280;38952;51.090;-1.832;2023-06-10T04:26:34;99980.13;;;13.50;85.64
51849;BME280;38952;51.090;-1.832;2023-06-10T04:29:00;99963.97;;;13.49;85.88
51849;BME280;38952;51.090;-1.832;2023-06-10T04:31:25;99968.84;;;13.52;85.84
51849;BME280;38952;51.090;-1.832;2023-06-10T04:33:58;99978.28;;;13.65;86.38
51849;BME280;38952;51.090;-1.832;2023-06-10T04:36:23;99973.84;;;13.69;86.22
51849;BME280;38952;51.090;-1.832;2023-06-10T04:38:49;99967.25;;;13.70;86.44
51849;BME280;38952;51.090;-1.832;2023-06-10T04:41:17;99965.75;;;13.77;85.88
51849;BME280;38952;51.090;-1.832;2023-06-10T04:43:43;99967.22;;;13.89;86.17
51849;BME280;38952;51.090;-1.832;2023-06-10T04:46:08;99950.00;;;13.83;85.68
51849;BME280;38952;51.090;-1.832;2023-06-10T04:48:34;99968.22;;;13.93;85.39
51849;BME280;38952;51.090;-1.832;2023-06-10T04:51:00;99972.16;;;14.06;85.63
51849;BME280;38952;51.090;-1.832;2023-06-10T04:53:28;99947.88;;;13.94;85.41
51849;BME280;38952;51.090;-1.832;2023-06-10T04:55:54;99951.16;;;13.96;85.19
51849;BME280;38952;51.090;-1.832;2023-06-10T04:58:19;99979.91;;;14.18;84.94
51849;BME280;38952;51.090;-1.832;2023-06-10T05:00:47;99956.91;;;14.13;84.78
51849;BME280;38952;51.090;-1.832;2023-06-10T05:03:13;99971.78;;;14.26;84.57
51849;BME280;38952;51.090;-1.832;2023-06-10T05:05:38;99966.53;;;14.30;84.37
51849;BME280;38952;51.090;-1.832;2023-06-10T05:08:04;99965.91;;;14.33;84.35
51849;BME280;38952;51.090;-1.832;2023-06-10T05:10:29;99976.72;;;14.43;84.06
51849;BME280;38952;51.090;-1.832;2023-06-10T05:12:57;99946.16;;;14.31;83.85
51849;BME280;38952;51.090;-1.832;2023-06-10T05:15:25;99952.06;;;14.38;83.70
51849;BME280;38952;51.090;-1.832;2023-06-10T05:17:51;99966.78;;;14.61;83.54
51849;BME280;38952;51.090;-1.832;2023-06-10T05:20:17;99970.69;;;14.74;82.70
51849;BME280;38952;51.090;-1.832;2023-06-10T05:22:43;99973.34;;;14.79;82.66
51849;BME280;38952;51.090;-1.832;2023-06-10T05:25:09;99977.63;;;14.86;82.42
51849;BME280;38952;51.090;-1.832;2023-06-10T05:27:35;99980.47;;;14.94;82.38
51849;BME280;38952;51.090;-1.832;2023-06-10T05:30:01;99972.94;;;15.00;81.84
51849;BME280;38952;51.090;-1.832;2023-06-10T05:32:30;99974.94;;;15.08;81.43
51849;BME280;38952;51.090;-1.832;2023-06-10T05:34:58;99974.47;;;15.20;81.33
51849;BME280;38952;51.090;-1.832;2023-06-10T05:37:25;99964.75;;;15.23;80.90
51849;BME280;38952;51.090;-1.832;2023-06-10T05:39:50;99954.75;;;15.27;80.31
51849;BME280;38952;51.090;-1.832;2023-06-10T05:42:18;99970.81;;;15.47;80.03
51849;BME280;38952;51.090;-1.832;2023-06-10T05:44:44;99989.31;;;15.69;79.68
51849;BME280;38952;51.090;-1.832;2023-06-10T05:47:37;99963.84;;;15.64;79.21
51849;BME280;38952;51.090;-1.832;2023-06-10T05:50:20;99979.09;;;15.84;79.12
51849;BME280;38952;51.090;-1.832;2023-06-10T05:53:11;99993.91;;;16.11;79.10
51849;BME280;38952;51.090;-1.832;2023-06-10T05:56:22;100000.47;;;16.23;78.29
51849;BME280;38952;51.090;-1.832;2023-06-10T06:01:59;99981.25;;;16.41;77.32
51849;BME280;38952;51.090;-1.832;2023-06-10T06:04:56;99954.31;;;16.38;76.81
51849;BME280;38952;51.090;-1.832;2023-06-10T06:07:36;99980.13;;;16.65;76.01
51849;BME280;38952;51.090;-1.832;2023-06-10T06:13:55;99983.63;;;16.88;75.06
51849;BME280;38952;51.090;-1.832;2023-06-10T06:16:20;99981.72;;;16.97;74.99
51849;BME280;38952;51.090;-1.832;2023-06-10T06:19:08;99988.63;;;17.17;74.07
51849;BME280;38952;51.090;-1.832;2023-06-10T06:21:49;100015.50;;;17.52;73.27
51849;BME280;38952;51.090;-1.832;2023-06-10T06:24:43;99979.41;;;17.48;73.10
51849;BME280;38952;51.090;-1.832;2023-06-10T06:27:45;99976.47;;;17.53;72.33
51849;BME280;38952;51.090;-1.832;2023-06-10T06:30:41;100010.00;;;17.78;71.95
51849;BME280;38952;51.090;-1.832;2023-06-10T06:33:24;100024.38;;;17.98;71.85
51849;BME280;38952;51.090;-1.832;2023-06-10T06:35:51;100002.72;;;17.91;71.08
51849;BME280;38952;51.090;-1.832;2023-06-10T06:38:17;100008.09;;;18.05;70.44
51849;BME280;38952;51.090;-1.832;2023-06-10T06:40:42;100014.22;;;18.19;70.26
51849;BME280;38952;51.090;-1.832;2023-06-10T06:43:10;100017.66;;;18.16;69.82
51849;BME280;38952;51.090;-1.832;2023-06-10T06:45:36;100022.72;;;18.23;70.00
51849;BME280;38952;51.090;-1.832;2023-06-10T06:48:01;100038.66;;;18.35;69.87
51849;BME280;38952;51.090;-1.832;2023-06-10T06:50:30;100018.78;;;18.33;69.19
51849;BME280;38952;51.090;-1.832;2023-06-10T06:52:58;100025.28;;;18.37;69.35
51849;BME280;38952;51.090;-1.832;2023-06-10T06:55:23;100035.84;;;18.52;68.88
51849;BME280;38952;51.090;-1.832;2023-06-10T06:57:51;100016.78;;;18.59;68.65
51849;BME280;38952;51.090;-1.832;2023-06-10T07:00:18;100008.13;;;18.61;67.92
51849;BME280;38952;51.090;-1.832;2023-06-10T07:02:43;100028.44;;;18.91;67.30
51849;BME280;38952;51.090;-1.832;2023-06-10T07:05:11;100019.75;;;19.01;67.10
51849;BME280;38952;51.090;-1.832;2023-06-10T07:07:39;100001.75;;;19.16;66.55
51849;BME280;38952;51.090;-1.832;2023-06-10T07:10:07;100026.94;;;19.53;66.33
51849;BME280;38952;51.090;-1.832;2023-06-10T07:12:32;100039.56;;;19.72;65.11
51849;BME280;38952;51.090;-1.832;2023-06-10T07:14:58;100024.28;;;19.87;64.82
51849;BME280;38952;51.090;-1.832;2023-06-10T07:17:23;100010.50;;;19.99;64.27
51849;BME280;38952;51.090;-1.832;2023-06-10T07:19:49;100032.31;;;20.22;63.27
51849;BME280;38952;51.090;-1.832;2023-06-10T07:22:14;100042.66;;;20.34;62.75
51849;BME280;38952;51.090;-1.832;2023-06-10T07:24:42;100034.72;;;20.45;62.11
51849;BME280;38952;51.090;-1.832;2023-06-10T07:27:08;100025.28;;;20.58;62.00
51849;BME280;38952;51.090;-1.832;2023-06-10T07:29:35;100058.50;;;21.00;61.52
51849;BME280;38952;51.090;-1.832;2023-06-10T07:32:02;100036.25;;;21.13;60.96
51849;BME280;38952;51.090;-1.832;2023-06-10T07:34:28;100053.28;;;21.36;60.44
51849;BME280;38952;51.090;-1.832;2023-06-10T07:36:53;100055.72;;;21.50;59.59
51849;BME280;38952;51.090;-1.832;2023-06-10T07:39:19;100052.03;;;21.58;58.94
51849;BME280;38952;51.090;-1.832;2023-06-10T07:41:44;100057.59;;;21.58;58.48
51849;BME280;38952;51.090;-1.832;2023-06-10T07:44:09;100049.72;;;21.60;58.50
51849;BME280;38952;51.090;-1.832;2023-06-10T07:46:35;100036.38;;;21.66;58.47
51849;BME280;38952;51.090;-1.832;2023-06-10T07:49:01;100061.47;;;21.94;57.94
51849;BME280;38952;51.090;-1.832;2023-06-10T07:51:29;100031.78;;;21.86;57.03
51849;BME280;38952;51.090;-1.832;2023-06-10T07:53:54;100036.88;;;21.96;57.11
51849;BME280;38952;51.090;-1.832;2023-06-10T07:56:22;100053.50;;;22.21;56.48
51849;BME280;38952;51.090;-1.832;2023-06-10T07:58:48;100040.03;;;22.23;56.73
51849;BME280;38952;51.090;-1.832;2023-06-10T08:01:13;100049.19;;;22.36;56.28
51849;BME280;38952;51.090;-1.832;2023-06-10T08:03:42;100043.09;;;22.46;55.83
51849;BME280;38952;51.090;-1.832;2023-06-10T08:06:15;100029.97;;;22.46;55.33
51849;BME280;38952;51.090;-1.832;2023-06-10T08:08:42;100042.41;;;22.65;55.52
51849;BME280;38952;51.090;-1.832;2023-06-10T08:11:11;100029.38;;;22.69;55.60
51849;BME280;38952;51.090;-1.832;2023-06-10T08:13:37;100012.63;;;22.69;55.59
51849;BME280;38952;51.090;-1.832;2023-06-10T08:16:02;100036.22;;;22.88;55.50
51849;BME280;38952;51.090;-1.832;2023-06-10T08:18:28;100029.91;;;22.91;55.04
51849;BME280;38952;51.090;-1.832;2023-06-10T08:20:54;100024.16;;;22.99;54.72
51849;BME280;38952;51.090;-1.832;2023-06-10T08:23:19;100035.34;;;23.15;54.30
51849;BME280;38952;51.090;-1.832;2023-06-10T08:25:50;100043.00;;;23.18;54.60
51849;BME280;38952;51.090;-1.832;2023-06-10T08:28:16;100047.56;;;23.43;54.05
51849;BME280;38952;51.090;-1.832;2023-06-10T08:30:44;100037.31;;;23.47;53.54
51849;BME280;38952;51.090;-1.832;2023-06-10T08:33:10;100030.06;;;23.62;53.49
51849;BME280;38952;51.090;-1.832;2023-06-10T08:35:35;100036.84;;;23.80;52.92
51849;BME280;38952;51.090;-1.832;2023-06-10T08:38:01;100045.69;;;24.02;53.21
51849;BME280;38952;51.090;-1.832;2023-06-10T08:40:26;100041.59;;;24.15;52.66
51849;BME280;38952;51.090;-1.832;2023-06-10T08:43:05;100043.03;;;24.48;52.26
51849;BME280;38952;51.090;-1.832;2023-06-10T08:45:34;100042.59;;;24.66;51.31
51849;BME280;38952;51.090;-1.832;2023-06-10T08:48:03;100058.25;;;24.94;50.83
51849;BME280;38952;51.090;-1.832;2023-06-10T08:50:34;100046.03;;;25.02;50.08
51849;BME280;38952;51.090;-1.832;2023-06-10T08:53:01;100056.63;;;25.16;50.20
51849;BME280;38952;51.090;-1.832;2023-06-10T08:55:35;100048.56;;;25.34;49.71
51849;BME280;38952;51.090;-1.832;2023-06-10T08:58:02;100044.25;;;25.67;49.59
51849;BME280;38952;51.090;-1.832;2023-06-10T09:00:28;100045.78;;;25.91;48.37
51849;BME280;38952;51.090;-1.832;2023-06-10T09:03:03;100036.94;;;26.16;47.93
51849;BME280;38952;51.090;-1.832;2023-06-10T09:05:37;100039.69;;;26.46;47.29
51849;BME280;38952;51.090;-1.832;2023-06-10T09:08:04;100041.19;;;26.74;46.52
51849;BME280;38952;51.090;-1.832;2023-06-10T09:10:36;100053.22;;;27.19;45.65
51849;BME280;38952;51.090;-1.832;2023-06-10T09:13:05;100051.47;;;27.52;44.87
51849;BME280;38952;51.090;-1.832;2023-06-10T09:15:30;100062.53;;;27.93;44.23
51849;BME280;38952;51.090;-1.832;2023-06-10T09:17:56;100045.88;;;28.26;43.11
51849;BME280;38952;51.090;-1.832;2023-06-10T09:20:33;100049.22;;;28.82;42.21
51849;BME280;38952;51.090;-1.832;2023-06-10T09:23:01;100038.78;;;28.97;40.99
51849;BME280;38952;51.090;-1.832;2023-06-10T09:25:35;100034.34;;;29.39;40.49
51849;BME280;38952;51.090;-1.832;2023-06-10T09:28:02;100054.72;;;30.08;39.85
51849;BME280;38952;51.090;-1.832;2023-06-10T09:30:34;100060.06;;;30.69;39.01
51849;BME280;38952;51.090;-1.832;2023-06-10T09:33:10;100057.81;;;31.09;37.58
51849;BME280;38952;51.090;-1.832;2023-06-10T09:35:36;100050.13;;;31.59;36.34
51849;BME280;38952;51.090;-1.832;2023-06-10T09:38:01;100040.56;;;31.83;35.83
51849;BME280;38952;51.090;-1.832;2023-06-10T09:40:48;100049.16;;;32.07;35.65
51849;BME280;38952;51.090;-1.832;2023-06-10T09:43:13;100064.31;;;32.24;34.61
51849;BME280;38952;51.090;-1.832;2023-06-10T09:45:39;100053.16;;;32.13;35.10
51849;BME280;38952;51.090;-1.832;2023-06-10T09:48:08;100040.22;;;32.43;34.77
51849;BME280;38952;51.090;-1.832;2023-06-10T09:50:48;100030.44;;;32.79;34.05
51849;BME280;38952;51.090;-1.832;2023-06-10T09:53:13;100046.03;;;33.14;33.13
51849;BME280;38952;51.090;-1.832;2023-06-10T09:55:41;100051.53;;;33.25;33.20
51849;BME280;38952;51.090;-1.832;2023-06-10T09:58:09;100042.88;;;33.56;33.10
51849;BME280;38952;51.090;-1.832;2023-06-10T10:00:36;100054.34;;;34.33;32.48
51849;BME280;38952;51.090;-1.832;2023-06-10T10:03:01;100042.03;;;35.09;31.28
51849;BME280;38952;51.090;-1.832;2023-06-10T10:05:27;100054.88;;;35.92;29.73
51849;BME280;38952;51.090;-1.832;2023-06-10T10:07:53;100050.78;;;37.13;28.18
51849;BME280;38952;51.090;-1.832;2023-06-10T10:10:20;100055.94;;;38.41;27.28
51849;BME280;38952;51.090;-1.832;2023-06-10T10:12:47;100052.97;;;38.86;26.55
51849;BME280;38952;51.090;-1.832;2023-06-10T10:15:16;100057.22;;;39.31;26.42
51849;BME280;38952;51.090;-1.832;2023-06-10T10:18:11;100050.59;;;39.71;25.56
51849;BME280;38952;51.090;-1.832;2023-06-10T10:20:50;100043.88;;;39.19;25.86
51849;BME280;38952;51.090;-1.832;2023-06-10T10:23:44;100051.00;;;39.23;25.59
51849;BME280;38952;51.090;-1.832;2023-06-10T10:26:18;100046.03;;;39.05;25.86
51849;BME280;38952;51.090;-1.832;2023-06-10T10:28:57;100061.81;;;42.09;23.63
51849;BME280;38952;51.090;-1.832;2023-06-10T10:31:25;100052.75;;;43.79;21.62
51849;BME280;38952;51.090;-1.832;2023-06-10T10:33:56;100028.63;;;43.71;21.46
51849;BME280;38952;51.090;-1.832;2023-06-10T10:36:23;100034.91;;;44.59;20.37
51849;BME280;38952;51.090;-1.832;2023-06-10T10:38:48;100046.44;;;45.52;19.40
51849;BME280;38952;51.090;-1.832;2023-06-10T10:41:18;100046.41;;;47.27;18.61
51849;BME280;38952;51.090;-1.832;2023-06-10T10:43:47;100036.47;;;49.92;16.21
51849;BME280;38952;51.090;-1.832;2023-06-10T10:46:17;100042.50;;;52.16;15.00
51849;BME280;38952;51.090;-1.832;2023-06-10T10:48:43;100032.13;;;53.15;12.86
51849;BME280;38952;51.090;-1.832;2023-06-10T10:51:11;100032.00;;;54.42;11.89
51849;BME280;38952;51.090;-1.832;2023-06-10T10:53:37;100032.94;;;56.66;11.32
51849;BME280;38952;51.090;-1.832;2023-06-10T10:56:14;100037.91;;;58.08;9.92
51849;BME280;38952;51.090;-1.832;2023-06-10T10:59:02;100023.22;;;57.43;10.43
51849;BME280;38952;51.090;-1.832;2023-06-10T11:01:42;100012.34;;;57.63;10.26
51849;BME280;38952;51.090;-1.832;2023-06-10T11:04:11;100027.69;;;56.64;10.19
51849;BME280;38952;51.090;-1.832;2023-06-10T11:06:39;100015.94;;;56.64;11.19
51849;BME280;38952;51.090;-1.832;2023-06-10T11:09:27;100026.22;;;56.73;10.61
51849;BME280;38952;51.090;-1.832;2023-06-10T11:11:59;100011.00;;;55.49;10.73
51849;BME280;38952;51.090;-1.832;2023-06-10T11:14:30;100002.22;;;52.94;11.56
51849;BME280;38952;51.090;-1.832;2023-06-10T11:17:20;100003.72;;;49.92;13.19
51849;BME280;38952;51.090;-1.832;2023-06-10T11:19:46;100011.94;;;48.13;14.58
51849;BME280;38952;51.090;-1.832;2023-06-10T11:22:17;100000.75;;;46.92;15.17
51849;BME280;38952;51.090;-1.832;2023-06-10T11:24:52;99990.34;;;45.92;16.08
51849;BME280;38952;51.090;-1.832;2023-06-10T11:27:21;100006.63;;;46.12;16.41
51849;BME280;38952;51.090;-1.832;2023-06-10T11:32:34;100018.41;;;46.77;16.37
51849;BME280;38952;51.090;-1.832;2023-06-10T11:35:02;100012.72;;;47.24;15.75
51849;BME280;38952;51.090;-1.832;2023-06-10T11:37:31;100014.19;;;48.56;15.35
51849;BME280;38952;51.090;-1.832;2023-06-10T11:39:57;100012.41;;;50.97;14.03
51849;BME280;38952;51.090;-1.832;2023-06-10T11:42:23;100004.88;;;53.96;12.79
51849;BME280;38952;51.090;-1.832;2023-06-10T11:44:50;100007.47;;;56.51;10.15
51849;BME280;38952;51.090;-1.832;2023-06-10T11:47:24;100010.97;;;57.64;9.39
51849;BME280;38952;51.090;-1.832;2023-06-10T11:49:58;100018.03;;;58.35;9.34
51849;BME280;38952;51.090;-1.832;2023-06-10T11:52:28;100008.63;;;59.25;8.56
51849;BME280;38952;51.090;-1.832;2023-06-10T11:54:56;100016.97;;;60.42;8.33
51849;BME280;38952;51.090;-1.832;2023-06-10T11:57:22;100013.13;;;60.52;8.83
51849;BME280;38952;51.090;-1.832;2023-06-10T11:59:47;100019.22;;;60.01;8.42
51849;BME280;38952;51.090;-1.832;2023-06-10T12:02:18;100013.50;;;59.93;7.95
51849;BME280;38952;51.090;-1.832;2023-06-10T12:04:44;100005.72;;;58.86;8.26
51849;BME280;38952;51.090;-1.832;2023-06-10T12:07:17;99992.16;;;57.23;8.12
51849;BME280;38952;51.090;-1.832;2023-06-10T12:10:00;99993.38;;;53.75;10.02
51849;BME280;38952;51.090;-1.832;2023-06-10T12:12:26;100000.88;;;51.74;11.32
51849;BME280;38952;51.090;-1.832;2023-06-10T12:19:58;99983.78;;;54.67;9.77
51849;BME280;38952;51.090;-1.832;2023-06-10T12:22:27;99992.59;;;53.89;10.61
51849;BME280;38952;51.090;-1.832;2023-06-10T12:25:05;99967.91;;;52.50;11.22
51849;BME280;38952;51.090;-1.832;2023-06-10T12:27:34;99977.34;;;51.93;11.85
51849;BME280;38952;51.090;-1.832;2023-06-10T12:30:01;99987.16;;;52.24;11.90
51849;BME280;38952;51.090;-1.832;2023-06-10T12:35:05;99987.97;;;56.63;9.34
51849;BME280;38952;51.090;-1.832;2023-06-10T12:37:30;99984.91;;;58.54;8.40
51849;BME280;38952;51.090;-1.832;2023-06-10T12:40:00;100001.06;;;59.95;7.30
51849;BME280;38952;51.090;-1.832;2023-06-10T12:42:26;99981.81;;;60.25;7.01
51849;BME280;38952;51.090;-1.832;2023-06-10T12:44:55;99991.50;;;61.14;6.91
51849;BME280;38952;51.090;-1.832;2023-06-10T12:47:33;100000.50;;;61.28;7.39
51849;BME280;38952;51.090;-1.832;2023-06-10T12:50:01;99984.31;;;61.29;6.32
51849;BME280;38952;51.090;-1.832;2023-06-10T12:52:29;99982.75;;;61.28;6.38
51849;BME280;38952;51.090;-1.832;2023-06-10T12:54:55;99981.44;;;62.00;6.91
51849;BME280;38952;51.090;-1.832;2023-06-10T12:57:26;99971.75;;;63.52;6.18
51849;BME280;38952;51.090;-1.832;2023-06-10T12:59:51;99953.72;;;64.04;6.19
51849;BME280;38952;51.090;-1.832;2023-06-10T13:02:27;99953.06;;;63.91;5.69
51849;BME280;38952;51.090;-1.832;2023-06-10T13:04:52;99963.28;;;64.02;5.93
51849;BME280;38952;51.090;-1.832;2023-06-10T13:07:19;99970.91;;;65.25;5.93
51849;BME280;38952;51.090;-1.832;2023-06-10T13:09:51;99947.66;;;66.37;5.33
51849;BME280;38952;51.090;-1.832;2023-06-10T13:12:17;99942.44;;;67.30;4.42
51849;BME280;38952;51.090;-1.832;2023-06-10T13:14:42;99931.91;;;67.26;4.41
51849;BME280;38952;51.090;-1.832;2023-06-10T13:17:08;99912.78;;;63.72;5.35
51849;BME280;38952;51.090;-1.832;2023-06-10T13:19:33;99916.56;;;59.78;6.73